Time;durP1;ratioP1;P1;durP2;ratioP2;P2;SDS_P1;SDS_P2;PMS_P1;PMS_P2;Temp;Humidity;BMP_temperature;BMP_pressure;BME280_temperature;BME280_humidity;BME280_pressure;Samples;Min_cycle;Max_cycle;Signal;HPM_P1;HPM_P2
2023/04/11 00:01:22;;;;;;;21.10;15.00;;;;;;;9.17;69.80;99699.46;107306;1254;73359;-37
2023/04/11 00:03:51;;;;;;;20.80;14.40;;;;;;;9.18;69.69;99695.72;107370;1254;61319;-37
2023/04/11 00:06:20;;;;;;;20.20;15.30;;;;;;;9.20;69.62;99696.16;107400;1254;61505;-37
2023/04/11 00:08:49;;;;;;;20.70;15.20;;;;;;;9.18;69.57;99695.17;107400;1257;75080;-37
2023/04/11 00:11:18;;;;;;;21.50;15.60;;;;;;;9.17;69.65;99692.30;107366;1256;69072;-36
2023/04/11 00:13:47;;;;;;;22.70;15.40;;;;;;;9.14;69.47;99696.39;107430;1254;73889;-37
2023/04/11 00:16:23;;;;;;;21.40;15.40;;;;;;;9.09;69.58;99692.14;107467;1255;61237;-36
2023/04/11 00:18:51;;;;;;;19.20;14.50;;;;;;;9.06;69.65;99698.54;107504;1257;60628;-36
2023/04/11 00:21:20;;;;;;;18.60;14.20;;;;;;;9.08;69.61;99695.27;107527;1254;74619;-37
2023/04/11 00:23:49;;;;;;;19.30;14.70;;;;;;;9.08;69.59;99693.27;107457;1254;69175;-36
2023/04/11 00:26:17;;;;;;;23.40;15.30;;;;;;;9.05;69.65;99696.20;107420;1254;72861;-37
2023/04/11 00:28:50;;;;;;;21.50;15.20;;;;;;;9.03;69.72;99695.69;107456;1254;61575;-38
2023/04/11 00:31:19;;;;;;;24.10;15.90;;;;;;;9.01;69.76;99695.05;107447;1254;61375;-37
2023/04/11 00:33:47;;;;;;;20.80;15.00;;;;;;;8.97;69.78;99694.93;107485;1254;75070;-37
2023/04/11 00:36:16;;;;;;;19.10;13.40;;;;;;;8.93;69.72;99691.95;107423;1254;69110;-37
2023/04/11 00:38:45;;;;;;;20.50;14.40;;;;;;;8.93;69.50;99690.94;107477;1254;71676;-37
2023/04/11 00:41:17;;;;;;;20.20;14.40;;;;;;;8.95;69.39;99691.26;107469;1254;61525;-37
2023/04/11 00:43:48;;;;;;;24.60;15.70;;;;;;;8.95;69.29;99689.01;107449;1254;60427;-37
2023/04/11 00:46:17;;;;;;;21.10;15.20;;;;;;;8.92;69.25;99687.77;107492;1254;75473;-37
2023/04/11 00:48:46;;;;;;;21.10;15.40;;;;;;;8.89;69.28;99685.89;107412;1254;69315;-37
2023/04/11 00:51:23;;;;;;;21.90;15.60;;;;;;;8.85;69.39;99686.23;107409;1254;73668;-37
2023/04/11 00:53:52;;;;;;;22.60;15.10;;;;;;;8.81;69.45;99688.49;107419;1257;61598;-37
2023/04/11 00:56:21;;;;;;;21.30;14.30;;;;;;;8.77;69.42;99687.52;107433;1254;61536;-37
2023/04/11 00:58:50;;;;;;;21.30;14.20;;;;;;;8.80;69.52;99688.67;107414;1254;74763;-37
2023/04/11 01:01:22;;;;;;;20.30;14.90;;;;;;;8.82;69.50;99686.73;107260;1260;69055;-37
2023/04/11 01:03:52;;;;;;;20.10;15.50;;;;;;;8.79;69.49;99687.41;107415;1254;73986;-37
2023/04/11 01:06:22;;;;;;;22.10;15.50;;;;;;;8.73;69.62;99680.45;107461;1254;61614;-37
2023/04/11 01:08:55;;;;;;;23.10;15.30;;;;;;;8.69;69.64;99680.71;106652;1254;1002541;-37
2023/04/11 01:11:25;;;;;;;20.70;15.30;;;;;;;8.62;69.82;99681.65;107490;1254;74759;-36
2023/04/11 01:13:53;;;;;;;23.40;13.80;;;;;;;8.58;69.94;99685.43;107413;1254;69104;-37
2023/04/11 01:16:23;;;;;;;15.80;13.20;;;;;;;8.59;69.82;99683.80;107413;1256;72760;-37
2023/04/11 01:18:52;;;;;;;17.90;13.70;;;;;;;8.63;69.71;99681.30;107353;1254;61594;-37
2023/04/11 01:21:21;;;;;;;18.50;14.20;;;;;;;8.62;69.50;99676.00;107356;1254;60323;-37
2023/04/11 01:23:51;;;;;;;21.20;14.80;;;;;;;8.58;69.56;99677.52;107369;1258;75050;-37
2023/04/11 01:26:20;;;;;;;24.40;14.80;;;;;;;8.56;69.44;99674.20;107480;1254;69095;-37
2023/04/11 01:28:50;;;;;;;20.90;15.60;;;;;;;8.52;69.53;99674.23;107445;1254;74064;-38
2023/04/11 01:31:20;;;;;;;22.40;15.10;;;;;;;8.46;69.66;99679.61;107334;1254;61278;-37
2023/04/11 01:33:49;;;;;;;23.50;14.30;;;;;;;8.43;69.80;99681.78;107489;1254;61737;-37
2023/04/11 01:36:18;;;;;;;19.60;13.20;;;;;;;8.43;69.75;99686.11;107224;1254;164501;-37
2023/04/11 01:39:39;;;;;;;21.30;14.70;;;;;;;8.44;69.83;99681.36;104124;1292;600264;-37
2023/04/11 01:42:07;;;;;;;19.00;14.90;;;;;;;8.40;69.91;99682.45;106610;1266;61618;-37
2023/04/11 01:44:36;;;;;;;19.50;14.00;;;;;;;8.37;69.86;99685.71;106666;1266;61611;-37
2023/04/11 01:47:05;;;;;;;19.70;14.40;;;;;;;8.33;69.85;99682.80;106589;1266;72960;-37
2023/04/11 01:49:36;;;;;;;22.30;15.10;;;;;;;8.29;69.89;99681.75;106678;1270;69188;-37
2023/04/11 01:52:05;;;;;;;22.40;14.30;;;;;;;8.25;69.88;99677.20;106592;1267;73913;-37
2023/04/11 01:54:34;;;;;;;19.90;13.90;;;;;;;8.30;69.70;99678.69;106460;1264;60328;-37
2023/04/11 01:57:03;;;;;;;21.00;14.80;;;;;;;8.32;69.66;99678.52;106678;1264;61774;-37
2023/04/11 01:59:31;;;;;;;23.70;14.40;;;;;;;8.31;69.69;99673.86;106705;1264;73917;-37
2023/04/11 02:02:00;;;;;;;22.50;15.70;;;;;;;8.32;69.65;99667.86;106807;1264;67347;-37
2023/04/11 02:04:31;;;;;;;23.90;15.30;;;;;;;8.31;69.65;99663.13;106859;1268;70689;-37
2023/04/11 02:06:59;;;;;;;23.10;16.00;;;;;;;8.28;69.68;99664.25;106769;1264;61344;-37
2023/04/11 02:09:32;;;;;;;23.60;14.20;;;;;;;8.25;69.70;99668.02;106793;1264;61498;-37
2023/04/11 02:12:01;;;;;;;18.80;14.30;;;;;;;8.29;69.52;99665.28;106789;1264;74364;-37
2023/04/11 02:14:42;;;;;;;18.30;14.80;;;;;;;8.30;69.53;99660.16;106744;1264;67693;-37
2023/04/11 02:17:12;;;;;;;20.40;15.10;;;;;;;8.29;69.33;99657.02;106804;1264;72894;-37
2023/04/11 02:19:44;;;;;;;;;;;;;;;8.27;69.10;99659.82;106800;1264;63080;-37
2023/04/11 02:22:16;;;;;;;19.20;14.40;;;;;;;8.21;69.18;99658.75;106773;1264;61183;-37
2023/04/11 02:24:46;;;;;;;23.10;15.70;;;;;;;8.13;69.37;99658.64;106764;1264;73840;-37
2023/04/11 02:27:15;;;;;;;22.30;15.70;;;;;;;8.09;69.19;99660.38;106776;1264;69207;-37
2023/04/11 02:29:43;;;;;;;24.40;13.20;;;;;;;8.05;69.28;99663.23;106807;1264;71724;-38
2023/04/11 02:32:13;;;;;;;19.70;13.70;;;;;;;8.08;69.38;99659.92;106752;1268;63067;-36
2023/04/11 02:34:41;;;;;;;18.40;14.40;;;;;;;8.12;69.33;99659.39;106757;1264;61523;-37
2023/04/11 02:37:17;;;;;;;18.70;14.10;;;;;;;8.11;69.37;99663.06;106626;1264;74010;-37
2023/04/11 02:39:46;;;;;;;14.40;11.00;;;;;;;8.10;69.21;99659.39;106899;1260;69175;-37
2023/04/11 02:42:15;;;;;;;19.30;15.90;;;;;;;8.07;69.17;99656.60;106909;1263;71905;-37
2023/04/11 02:44:54;;;;;;;24.20;16.80;;;;;;;8.02;69.12;99657.42;106888;1261;61623;-37
2023/04/11 02:47:27;;;;;;;22.50;16.00;;;;;;;7.98;69.29;99653.12;106894;1260;61485;-37
2023/04/11 02:50:06;;;;;;;20.60;15.00;;;;;;;7.93;69.50;99654.98;106983;1260;74282;-37
2023/04/11 02:52:41;;;;;;;21.90;14.50;;;;;;;7.95;69.58;99649.79;106988;1260;67147;-37
2023/04/11 02:55:10;;;;;;;;;;;;;;;7.99;69.52;99644.08;107049;1260;72968;-37
2023/04/11 02:57:39;;;;;;;18.40;14.90;;;;;;;7.95;69.64;99644.06;107023;1260;61647;-37
2023/04/11 03:00:10;;;;;;;21.50;15.00;;;;;;;7.88;69.85;99648.16;107029;1260;61184;-37
2023/04/11 03:02:48;;;;;;;22.90;15.50;;;;;;;7.89;69.68;99644.41;107012;1260;74734;-37
2023/04/11 03:05:20;;;;;;;22.20;15.20;;;;;;;7.89;69.73;99641.77;107023;1260;68626;-37
2023/04/11 03:07:50;;;;;;;;;;;;;;;7.86;69.64;99638.16;107000;1261;74612;-37
2023/04/11 03:10:23;;;;;;;22.60;14.60;;;;;;;7.71;69.61;99629.20;106971;1262;62764;-37
2023/04/11 03:12:51;;;;;;;18.60;14.70;;;;;;;7.72;69.72;99634.27;107291;1257;59808;-37
2023/04/11 03:15:20;;;;;;;20.50;14.90;;;;;;;7.77;69.61;99631.14;107282;1256;73913;-37
2023/04/11 03:17:49;;;;;;;19.40;15.50;;;;;;;7.80;69.45;99631.61;107286;1257;69129;-37
2023/04/11 03:20:18;;;;;;;21.50;15.40;;;;;;;7.80;69.29;99632.24;107244;1257;73721;-37
2023/04/11 03:22:50;;;;;;;24.10;16.20;;;;;;;7.78;69.22;99636.11;107245;1257;61652;-37
2023/04/11 03:25:19;;;;;;;25.90;15.60;;;;;;;7.75;69.00;99639.38;107312;1256;60282;-37
2023/04/11 03:27:49;;;;;;;19.70;15.70;;;;;;;7.73;69.11;99640.48;107159;1257;74074;-37
2023/04/11 03:30:21;;;;;;;18.90;14.50;;;;;;;7.72;69.14;99639.73;107073;1260;68800;-38
2023/04/11 03:32:51;;;;;;;22.00;15.30;;;;;;;7.73;68.99;99640.10;107091;1257;74138;-38
2023/04/11 03:35:20;;;;;;;19.00;14.90;;;;;;;7.79;68.76;99636.83;107208;1257;61560;-38
2023/04/11 03:37:49;;;;;;;20.90;14.80;;;;;;;7.79;68.78;99639.98;107179;1257;61286;-38
2023/04/11 03:40:18;;;;;;;20.50;15.10;;;;;;;7.79;68.77;99638.59;107174;1256;74289;-38
2023/04/11 03:42:52;;;;;;;23.00;15.60;;;;;;;7.78;68.55;99636.50;107237;1257;68780;-37
2023/04/11 03:45:25;;;;;;;20.50;15.10;;;;;;;7.76;68.39;99634.36;107252;1256;73833;-37
2023/04/11 03:47:53;;;;;;;24.10;16.40;;;;;;;7.76;68.08;99637.94;107318;1257;60143;-36
2023/04/11 03:50:25;;;;;;;21.30;15.80;;;;;;;7.75;68.00;99635.35;107264;1257;61531;-37
2023/04/11 03:52:57;;;;;;;21.90;16.50;;;;;;;7.72;67.99;99635.04;107235;1257;73808;-37
2023/04/11 03:55:26;;;;;;;20.90;14.40;;;;;;;7.68;68.18;99631.69;107284;1257;68884;-38
2023/04/11 03:57:56;;;;;;;19.40;14.50;;;;;;;7.71;68.05;99629.61;107250;1257;72873;-38
2023/04/11 04:00:25;;;;;;;19.10;14.50;;;;;;;7.74;67.95;99626.80;107278;1257;61367;-38
2023/04/11 04:03:06;;;;;;;20.20;15.50;;;;;;;7.76;67.82;99631.34;107256;1257;61212;-38
2023/04/11 04:05:36;;;;;;;23.70;15.50;;;;;;;7.75;67.80;99630.59;107642;1253;74141;-38
2023/04/11 04:08:05;;;;;;;16.80;11.90;;;;;;;7.75;67.70;99628.46;107495;1256;69107;-38
2023/04/11 04:10:47;;;;;;;21.10;15.70;;;;;;;7.77;67.53;99628.58;106618;1256;1003605;-38
2023/04/11 04:13:16;;;;;;;21.60;15.90;;;;;;;7.77;67.51;99625.34;107307;1254;61287;-38
2023/04/11 04:15:59;;;;;;;23.30;15.60;;;;;;;7.77;67.46;99630.38;106548;1255;1003088;-38
2023/04/11 04:18:33;;;;;;;18.10;13.80;;;;;;;7.71;67.11;99618.36;107293;1255;73929;-38
2023/04/11 04:21:02;;;;;;;21.30;14.90;;;;;;;7.85;66.88;99626.48;107406;1255;68873;-38
2023/04/11 04:23:31;;;;;;;18.40;14.00;;;;;;;7.92;66.66;99629.80;107411;1256;73708;-38
2023/04/11 04:26:17;;;;;;;21.50;14.90;;;;;;;7.96;66.47;99623.13;107287;1259;61606;-38
2023/04/11 04:29:03;;;;;;;20.80;14.90;;;;;;;7.98;66.27;99620.10;107425;1255;61369;-38
2023/04/11 04:31:49;;;;;;;18.50;13.10;;;;;;;8.00;66.12;99617.61;107390;1256;74046;-37
2023/04/11 04:34:20;;;;;;;21.80;15.40;;;;;;;8.00;65.63;99620.58;107376;1257;69608;-37
2023/04/11 04:36:55;;;;;;;20.80;15.20;;;;;;;8.02;65.73;99613.23;107391;1255;73612;-37
2023/04/11 04:39:32;;;;;;;24.50;15.70;;;;;;;8.05;65.61;99616.63;107404;1256;61280;-38
2023/04/11 04:42:08;;;;;;;23.70;15.60;;;;;;;8.07;65.61;99612.39;107406;1255;59744;-38
2023/04/11 04:44:59;;;;;;;19.90;13.50;;;;;;;8.09;65.43;99610.92;107387;1259;75515;-38
2023/04/11 04:47:32;;;;;;;20.00;13.90;;;;;;;8.20;65.22;99602.30;107286;1256;67955;-38
2023/04/11 04:50:00;;;;;;;17.70;14.20;;;;;;;8.25;65.13;99597.79;107279;1257;73596;-38
2023/04/11 04:52:30;;;;;;;22.60;15.30;;;;;;;8.29;64.64;99595.98;107399;1256;61280;-38
2023/04/11 04:54:59;;;;;;;19.90;14.80;;;;;;;8.35;64.34;99591.55;107208;1260;61534;-38
2023/04/11 04:57:30;;;;;;;19.60;14.90;;;;;;;8.41;63.85;99586.56;107335;1257;73920;-38
2023/04/11 05:00:10;;;;;;;25.50;14.80;;;;;;;8.45;63.74;99586.21;107267;1257;69139;-38
2023/04/11 05:02:43;;;;;;;20.50;15.10;;;;;;;8.48;63.56;99585.16;107392;1256;73951;-38
2023/04/11 05:05:14;;;;;;;19.60;14.70;;;;;;;8.50;63.32;99583.52;107280;1255;60345;-38
2023/04/11 05:07:44;;;;;;;20.40;14.50;;;;;;;8.52;63.11;99583.73;107381;1257;61546;-38
2023/04/11 05:10:15;;;;;;;19.20;14.80;;;;;;;8.55;62.71;99586.15;107351;1254;73288;-38
2023/04/11 05:12:44;;;;;;;13.40;11.00;;;;;;;8.61;63.03;99584.62;107340;1256;68895;-38
2023/04/11 05:15:14;;;;;;;18.40;14.00;;;;;;;8.65;62.39;99583.28;107376;1255;74259;-38
2023/04/11 05:17:43;;;;;;;24.90;15.00;;;;;;;8.68;62.62;99582.69;107461;1255;59737;-38
2023/04/11 05:20:14;;;;;;;22.10;13.60;;;;;;;8.73;62.72;99583.00;107273;1257;60342;-38
2023/04/11 05:22:46;;;;;;;17.40;13.00;;;;;;;8.86;62.44;99580.41;107390;1255;74133;-38
2023/04/11 05:25:16;;;;;;;19.40;13.80;;;;;;;8.95;61.75;99577.14;107437;1256;69536;-38
2023/04/11 05:27:46;;;;;;;17.30;13.50;;;;;;;9.01;61.58;99580.10;107395;1256;73671;-38
2023/04/11 05:30:15;;;;;;;17.30;13.80;;;;;;;9.10;61.57;99579.95;107435;1256;61421;-38
2023/04/11 05:32:50;;;;;;;19.20;13.90;;;;;;;9.20;61.13;99577.75;107412;1255;61348;-38
2023/04/11 05:35:20;;;;;;;19.10;12.90;;;;;;;9.26;61.24;99577.30;107458;1254;73025;-38
2023/04/11 05:37:52;;;;;;;17.10;13.50;;;;;;;9.31;60.63;99573.04;107416;1255;68642;-37
2023/04/11 05:40:20;;;;;;;17.60;13.40;;;;;;;9.36;60.37;99573.42;107416;1257;72515;-37
2023/04/11 05:42:49;;;;;;;18.40;13.90;;;;;;;9.44;60.18;99572.09;107399;1258;61294;-37
2023/04/11 05:45:18;;;;;;;18.70;13.30;;;;;;;9.52;59.83;99566.50;107476;1256;60289;-37
2023/04/11 05:47:47;;;;;;;16.90;12.90;;;;;;;9.54;59.71;99560.20;107410;1259;74229;-38
2023/04/11 05:50:15;;;;;;;16.70;13.40;;;;;;;9.65;58.92;99572.10;107489;1256;68830;-37
2023/04/11 05:52:45;;;;;;;13.30;9.10;;;;;;;9.71;58.74;99570.85;107452;1259;73996;-37
2023/04/11 05:55:14;;;;;;;18.50;13.60;;;;;;;9.80;59.05;99571.70;106631;1259;1015659;-37
2023/04/11 05:57:45;;;;;;;18.70;13.40;;;;;;;9.87;58.47;99568.40;107419;1256;60291;-37
2023/04/11 06:00:15;;;;;;;19.30;13.00;;;;;;;9.92;58.43;99568.99;107369;1255;75323;-37
2023/04/11 06:03:06;;;;;;;18.10;13.00;;;;;;;9.99;57.52;99568.39;107418;1257;69225;-37
2023/04/11 06:05:36;;;;;;;17.30;12.10;;;;;;;10.06;57.44;99568.15;107363;1256;74084;-37
2023/04/11 06:08:06;;;;;;;16.40;13.10;;;;;;;10.13;57.02;99568.49;107324;1256;60412;-37
2023/04/11 06:10:35;;;;;;;18.70;12.50;;;;;;;10.21;56.09;99565.98;107357;1256;61551;-37
2023/04/11 06:13:07;;;;;;;18.50;12.60;;;;;;;10.27;55.48;99563.98;107363;1256;75024;-37
2023/04/11 06:15:36;;;;;;;19.70;12.60;;;;;;;10.36;55.25;99563.25;107386;1256;68879;-37
2023/04/11 06:18:05;;;;;;;16.60;11.80;;;;;;;10.46;55.74;99561.00;107294;1256;73896;-37
2023/04/11 06:20:35;;;;;;;19.50;12.70;;;;;;;10.58;55.14;99558.46;107282;1256;60786;-37
2023/04/11 06:23:06;;;;;;;20.60;12.70;;;;;;;10.67;55.26;99560.21;107365;1255;60645;-37
2023/04/11 06:25:35;;;;;;;18.00;12.60;;;;;;;10.76;54.29;99553.90;107285;1254;75071;-37
2023/04/11 06:28:05;;;;;;;;;;;;;;;10.80;54.24;99547.08;107403;1258;70310;-37
2023/04/11 06:30:34;;;;;;;14.60;11.30;;;;;;;10.90;54.03;99548.84;107435;1257;73701;-37
2023/04/11 06:33:03;;;;;;;16.20;11.30;;;;;;;11.00;54.35;99549.27;107440;1255;61611;-37
2023/04/11 06:35:32;;;;;;;13.30;8.30;;;;;;;11.16;54.11;99547.80;107419;1256;61107;-37
2023/04/11 06:38:00;;;;;;;20.20;11.90;;;;;;;11.32;53.89;99550.52;106708;1259;1003814;-37
2023/04/11 06:40:29;;;;;;;16.20;11.10;;;;;;;11.45;53.47;99544.72;107377;1256;69171;-37
2023/04/11 06:42:59;;;;;;;16.40;10.50;;;;;;;11.58;51.94;99543.63;107420;1255;73991;-37
2023/04/11 06:45:27;;;;;;;;;;;;;;;11.72;49.90;99542.02;107398;1256;60568;-37
2023/04/11 06:47:56;;;;;;;15.20;9.60;;;;;;;11.76;48.25;99536.67;107425;1257;61316;-37
2023/04/11 06:50:25;;;;;;;14.40;10.20;;;;;;;11.81;48.51;99536.30;107363;1255;75034;-37
2023/04/11 06:52:54;;;;;;;15.50;10.10;;;;;;;11.92;48.71;99531.57;107404;1256;69123;-37
2023/04/11 06:55:23;;;;;;;12.10;9.10;;;;;;;12.03;48.31;99530.99;107410;1256;73514;-37
2023/04/11 06:57:51;;;;;;;17.70;9.70;;;;;;;12.17;47.43;99528.32;107372;1255;61605;-37
2023/04/11 07:00:20;;;;;;;13.90;9.60;;;;;;;12.29;46.14;99529.89;107411;1254;61425;-37
2023/04/11 07:02:51;;;;;;;16.00;9.80;;;;;;;12.36;45.31;99531.33;107405;1256;74610;-37
2023/04/11 07:05:20;;;;;;;;;;;;;;;12.40;45.22;99531.14;107415;1255;67415;-37
2023/04/11 07:07:49;;;;;;;12.20;8.50;;;;;;;12.42;46.25;99538.55;107272;1255;73806;-37
2023/04/11 07:10:17;;;;;;;13.20;8.90;;;;;;;12.46;45.48;99538.31;107287;1256;61602;-38
2023/04/11 07:12:46;;;;;;;14.10;8.90;;;;;;;12.58;46.09;99532.33;107334;1256;61565;-37
2023/04/11 07:15:19;;;;;;;12.80;8.50;;;;;;;12.70;44.59;99527.59;107385;1257;75042;-38
2023/04/11 07:17:48;;;;;;;12.10;8.80;;;;;;;12.79;45.25;99519.00;107468;1255;67949;-38
2023/04/11 07:20:19;;;;;;;11.90;8.60;;;;;;;12.92;45.36;99518.69;107387;1256;73886;-38
2023/04/11 07:22:48;;;;;;;13.90;8.40;;;;;;;13.04;44.81;99515.26;107358;1256;61658;-38
2023/04/11 07:25:21;;;;;;;10.00;7.80;;;;;;;13.17;44.26;99511.61;107277;1256;60427;-37
2023/04/11 07:27:50;;;;;;;9.00;7.60;;;;;;;13.23;42.98;99499.23;107284;1256;75031;-37
2023/04/11 07:30:20;;;;;;;;;;;;;;;13.33;42.71;99506.48;107331;1256;70105;-37
2023/04/11 07:32:49;;;;;;;10.40;6.30;;;;;;;13.31;43.37;99496.29;107357;1255;73841;-37
2023/04/11 07:35:19;;;;;;;11.90;7.30;;;;;;;13.33;43.01;99491.33;107358;1256;61569;-37
2023/04/11 07:37:48;;;;;;;11.90;7.10;;;;;;;13.46;43.83;99490.43;107408;1255;61222;-37
2023/04/11 07:40:16;;;;;;;11.90;7.30;;;;;;;13.62;43.47;99490.17;107380;1258;75097;-37
2023/04/11 07:42:45;;;;;;;11.60;7.40;;;;;;;13.72;43.28;99476.11;107395;1256;69153;-37
2023/04/11 07:45:14;;;;;;;12.20;6.90;;;;;;;13.90;42.15;99474.07;107409;1257;73863;-37
2023/04/11 07:47:43;;;;;;;9.50;6.40;;;;;;;14.01;42.27;99472.42;107342;1259;61611;-38
2023/04/11 07:50:12;;;;;;;11.80;6.10;;;;;;;14.12;42.44;99474.05;107417;1255;60409;-37
2023/04/11 07:52:41;;;;;;;10.80;6.40;;;;;;;14.26;42.19;99475.23;107395;1259;74029;-37
2023/04/11 07:55:09;;;;;;;9.80;5.90;;;;;;;14.42;42.34;99472.14;107396;1259;67648;-37
2023/04/11 07:57:38;;;;;;;10.10;6.30;;;;;;;14.56;41.18;99462.16;107386;1256;72299;-38
2023/04/11 08:00:09;;;;;;;9.00;5.90;;;;;;;14.64;41.03;99463.61;107367;1256;61618;-37
2023/04/11 08:02:43;;;;;;;13.20;6.30;;;;;;;14.71;41.14;99464.64;107355;1256;61547;-37
2023/04/11 08:05:12;;;;;;;8.90;5.80;;;;;;;14.78;41.17;99459.52;107381;1258;75099;-38
2023/04/11 08:07:47;;;;;;;9.20;6.10;;;;;;;14.88;40.63;99459.56;107265;1259;68952;-38
2023/04/11 08:10:16;;;;;;;7.20;5.50;;;;;;;14.95;41.09;99462.47;107266;1258;73869;-38
2023/04/11 08:12:45;;;;;;;8.20;5.40;;;;;;;15.08;40.80;99456.89;107284;1258;61584;-38
2023/04/11 08:15:15;;;;;;;10.00;5.50;;;;;;;15.22;40.09;99450.97;107377;1256;60658;-37
2023/04/11 08:17:45;;;;;;;9.90;5.70;;;;;;;15.32;40.83;99447.02;107364;1257;74720;-37
2023/04/11 08:20:14;;;;;;;9.40;5.30;;;;;;;15.41;39.83;99442.17;107372;1259;68724;-37
2023/04/11 08:22:50;;;;;;;10.80;5.60;;;;;;;15.44;39.25;99438.98;107332;1256;73524;-38
2023/04/11 08:25:21;;;;;;;11.00;5.40;;;;;;;15.49;39.38;99433.77;107338;1256;61564;-38
2023/04/11 08:27:51;;;;;;;9.30;5.20;;;;;;;15.54;38.62;99435.82;107355;1256;61123;-37
2023/04/11 08:30:20;;;;;;;13.80;5.80;;;;;;;15.59;38.45;99434.95;107353;1255;74819;-37
2023/04/11 08:32:49;;;;;;;8.70;4.70;;;;;;;15.68;39.38;99433.94;107388;1259;69098;-37
2023/04/11 08:35:17;;;;;;;9.80;5.60;;;;;;;15.86;39.09;99429.31;107467;1256;73854;-38
2023/04/11 08:37:47;;;;;;;7.40;5.30;;;;;;;16.03;39.02;99421.77;107356;1256;61684;-38
2023/04/11 08:40:16;;;;;;;11.60;5.60;;;;;;;16.20;38.35;99421.74;107333;1256;61543;-38
2023/04/11 08:42:46;;;;;;;;;;;;;;;16.36;38.08;99419.80;107328;1255;74942;-38
2023/04/11 08:45:14;;;;;;;11.20;5.20;;;;;;;16.41;37.44;99411.52;107315;1256;69129;-38
2023/04/11 08:47:43;;;;;;;8.90;5.10;;;;;;;16.42;38.07;99407.91;107339;1256;73992;-38
2023/04/11 08:50:14;;;;;;;9.50;4.90;;;;;;;16.55;38.04;99404.73;107281;1256;61356;-37
2023/04/11 08:52:42;;;;;;;9.30;5.30;;;;;;;16.66;38.33;99405.95;107360;1256;61311;-38
2023/04/11 08:55:12;;;;;;;8.80;5.50;;;;;;;16.77;37.51;99400.73;107315;1257;73519;-37
2023/04/11 08:57:41;;;;;;;8.10;5.40;;;;;;;16.84;37.46;99397.64;107326;1255;68212;-38
2023/04/11 09:00:13;;;;;;;12.50;5.50;;;;;;;16.88;36.88;99397.85;107310;1255;73873;-38
2023/04/11 09:03:03;;;;;;;10.30;5.20;;;;;;;16.91;36.61;99395.87;107367;1255;60409;-38
2023/04/11 09:05:40;;;;;;;8.20;5.20;;;;;;;17.02;37.51;99390.64;107321;1256;61563;-37
2023/04/11 09:08:11;;;;;;;9.00;5.00;;;;;;;17.13;36.39;99388.77;107346;1256;75019;-37
2023/04/11 09:10:40;;;;;;;9.70;5.10;;;;;;;17.28;36.23;99382.00;107341;1254;68863;-38
2023/04/11 09:13:23;;;;;;;8.90;5.40;;;;;;;17.34;35.66;99376.63;107334;1256;73731;-37
2023/04/11 09:16:13;;;;;;;10.60;5.30;;;;;;;17.39;36.37;99375.25;107319;1255;61320;-38
2023/04/11 09:18:44;;;;;;;;;;;;;;;17.55;36.41;99373.96;107272;1257;61492;-38
2023/04/11 09:21:23;;;;;;;8.30;5.00;;;;;;;17.64;35.74;99370.20;107243;1256;74868;-38
2023/04/11 09:23:53;;;;;;;8.70;5.00;;;;;;;17.69;35.93;99369.45;107288;1256;69403;-38
2023/04/11 09:26:26;;;;;;;8.80;5.10;;;;;;;17.82;35.29;99357.81;107298;1256;72148;-38
2023/04/11 09:28:56;;;;;;;8.00;5.10;;;;;;;17.80;35.28;99356.02;107350;1257;60418;-38
2023/04/11 09:31:44;;;;;;;8.60;5.20;;;;;;;17.68;34.96;99350.34;107392;1255;60316;-38
2023/04/11 09:34:19;;;;;;;11.50;5.10;;;;;;;17.62;35.63;99347.50;107303;1259;74871;-38
2023/04/11 09:36:53;;;;;;;8.00;4.90;;;;;;;17.67;35.64;99336.17;107181;1256;69094;-38
2023/04/11 09:39:25;;;;;;;7.50;4.80;;;;;;;17.80;35.99;99335.57;107361;1256;72590;-38
2023/04/11 09:41:54;;;;;;;6.70;4.50;;;;;;;17.95;36.07;99327.33;107292;1257;61578;-38
2023/04/11 09:44:36;;;;;;;9.20;4.80;;;;;;;18.09;35.73;99328.73;107349;1256;61538;-38
2023/04/11 09:47:04;;;;;;;10.50;4.80;;;;;;;18.08;35.65;99328.76;107337;1259;74739;-36
2023/04/11 09:49:36;;;;;;;9.00;5.00;;;;;;;18.06;35.64;99321.63;107370;1257;69487;-37
2023/04/11 09:52:05;;;;;;;10.40;5.00;;;;;;;18.04;35.45;99318.52;107166;1255;73885;-37
2023/04/11 09:54:34;;;;;;;10.70;4.50;;;;;;;18.08;35.68;99321.30;107252;1257;61542;-37
2023/04/11 09:57:03;;;;;;;11.60;5.50;;;;;;;18.01;36.31;99321.07;107299;1256;61497;-37
2023/04/11 09:59:32;;;;;;;6.20;4.90;;;;;;;17.86;36.39;99320.07;107262;1256;75367;-37
2023/04/11 10:02:00;;;;;;;10.40;5.10;;;;;;;17.75;37.03;99321.61;107282;1257;69092;-37
2023/04/11 10:04:33;;;;;;;7.20;5.10;;;;;;;17.80;37.61;99315.44;107320;1256;73862;-37
2023/04/11 10:07:11;;;;;;;11.80;4.80;;;;;;;17.99;37.59;99308.17;107296;1255;60277;-37
2023/04/11 10:09:41;;;;;;;7.90;4.70;;;;;;;18.25;36.96;99304.85;107340;1257;61197;-37
2023/04/11 10:12:11;;;;;;;7.20;4.80;;;;;;;18.34;37.02;99304.73;107391;1256;74430;-37
2023/04/11 10:14:41;;;;;;;;;;;;;;;18.30;37.17;99305.49;107295;1256;68909;-37
2023/04/11 10:17:09;;;;;;;8.90;4.80;;;;;;;18.15;37.35;99299.98;107238;1256;73501;-37
2023/04/11 10:19:39;;;;;;;8.50;4.80;;;;;;;18.16;37.83;99301.77;107288;1256;60466;-37
2023/04/11 10:22:07;;;;;;;10.70;5.20;;;;;;;18.29;37.05;99297.89;107342;1256;61498;-37
2023/04/11 10:24:36;;;;;;;9.40;4.70;;;;;;;18.31;37.12;99292.00;107340;1255;75131;-37
2023/04/11 10:27:06;;;;;;;9.90;4.90;;;;;;;18.31;37.15;99288.46;107372;1257;69358;-37
2023/04/11 10:29:47;;;;;;;9.20;4.80;;;;;;;18.26;37.09;99290.34;107341;1257;72663;-37
2023/04/11 10:32:20;;;;;;;12.50;5.00;;;;;;;18.19;37.69;99285.58;107260;1259;61584;-37
2023/04/11 10:34:49;;;;;;;8.90;4.80;;;;;;;18.24;38.36;99284.95;107347;1256;61541;-38
2023/04/11 10:37:34;;;;;;;6.60;4.70;;;;;;;18.31;37.77;99282.67;107308;1258;75763;-38
2023/04/11 10:40:08;;;;;;;7.20;4.10;;;;;;;18.39;38.17;99276.83;107334;1256;69526;-38
2023/04/11 10:42:42;;;;;;;9.80;4.80;;;;;;;18.56;37.67;99264.13;107434;1255;73966;-37
2023/04/11 10:45:24;;;;;;;7.90;5.00;;;;;;;18.71;38.00;99254.27;107303;1260;60438;-37
2023/04/11 10:48:10;;;;;;;6.00;4.80;;;;;;;18.77;37.23;99252.44;107297;1258;61409;-37
2023/04/11 10:50:41;;;;;;;8.30;5.20;;;;;;;18.74;36.83;99251.15;107378;1256;73786;-37
2023/04/11 10:53:32;;;;;;;8.10;5.10;;;;;;;18.72;36.90;99246.48;107325;1255;69336;-37
2023/04/11 10:56:01;;;;;;;7.60;5.20;;;;;;;18.67;37.07;99243.27;107388;1256;73845;-37
2023/04/11 10:58:39;;;;;;;7.50;5.20;;;;;;;18.72;37.36;99241.77;107272;1256;61314;-37
2023/04/11 11:01:13;;;;;;;9.90;5.10;;;;;;;18.80;37.00;99243.30;107259;1257;61536;-37
2023/04/11 11:03:59;;;;;;;8.10;5.50;;;;;;;18.64;36.60;99244.73;107284;1257;75113;-37
2023/04/11 11:06:30;;;;;;;7.60;5.00;;;;;;;18.32;37.29;99250.98;107338;1255;67906;-37
2023/04/11 11:08:59;;;;;;;12.80;5.60;;;;;;;17.94;37.59;99243.88;107245;1257;73857;-37
2023/04/11 11:11:28;;;;;;;12.00;5.40;;;;;;;17.60;38.30;99248.36;107358;1257;62253;-37
2023/04/11 11:13:59;;;;;;;7.50;5.00;;;;;;;17.34;38.79;99244.16;107342;1256;61303;-37
2023/04/11 11:16:28;;;;;;;6.20;4.90;;;;;;;17.28;39.42;99243.04;107328;1256;75194;-37
2023/04/11 11:19:05;;;;;;;8.40;4.80;;;;;;;17.44;40.12;99245.93;107273;1257;68802;-37
2023/04/11 11:21:33;;;;;;;13.60;4.60;;;;;;;17.63;39.60;99234.69;107355;1257;73896;-37
2023/04/11 11:24:03;;;;;;;9.20;5.00;;;;;;;17.77;39.52;99230.85;107291;1257;61567;-37
2023/04/11 11:26:41;;;;;;;8.00;4.80;;;;;;;17.87;39.59;99228.85;107363;1257;60322;-37
2023/04/11 11:29:11;;;;;;;10.90;5.10;;;;;;;17.91;39.17;99230.59;107306;1256;75086;-37
2023/04/11 11:31:44;;;;;;;10.50;5.20;;;;;;;17.83;39.22;99227.10;107344;1257;68933;-37
2023/04/11 11:34:13;;;;;;;6.90;4.40;;;;;;;17.72;39.13;99224.16;107348;1259;73801;-37
2023/04/11 11:36:52;;;;;;;8.00;4.80;;;;;;;17.56;38.94;99222.31;107346;1256;61577;-37
2023/04/11 11:39:20;;;;;;;7.40;4.40;;;;;;;17.35;39.27;99223.48;107376;1257;60342;-37
2023/04/11 11:41:52;;;;;;;7.90;4.90;;;;;;;17.18;39.60;99217.77;107320;1257;75367;-37